METAR Data
IDs: Format: Raw Decoded Include TAF

Data at: 1152 UTC 23 Sep 2018

KIGM 231051Z AUTO 13009KT 10SM CLR 21/03 A2998 RMK AO2 SLP077 T02060028
KIGM 230951Z AUTO 10008KT 10SM CLR 19/04 A2999 RMK AO2 SLP080 T01890039
KIGM 230851Z AUTO 00000KT 10SM CLR 21/04 A3000 RMK AO2 SLP083 T02110039 58003
KIGM 230751Z AUTO 16003KT 10SM SCT110 24/04 A3001 RMK AO2 SLP082 T02390039
KIGM 230651Z AUTO 00000KT 10SM CLR 24/04 A3001 RMK AO2 SLP083 T02440044 403500178
KIGM 230551Z AUTO 26003KT 10SM CLR 23/04 A3001 RMK AO2 SLP086 T02330039 10333 20228 50003
KIGM 230451Z AUTO 18009KT 10SM CLR 25/05 A3001 RMK AO2 SLP087 T02500050
KIGM 230351Z AUTO 19009KT 10SM BKN110 27/05 A3001 RMK AO2 SLP086 T02670050
KIGM 230251Z AUTO 19007KT 10SM FEW100 27/05 A3000 RMK AO2 SLP086 T02670050 53001
KIGM 230151Z AUTO 24008KT 10SM SCT110 29/06 A2999 RMK AO2 SLP088 T02940056
KIGM 230051Z AUTO 25013KT 10SM FEW110 32/06 A2999 RMK AO2 SLP084 T03220056
KIGM 222351Z AUTO 23014KT 10SM CLR 33/06 A2999 RMK AO2 SLP083 T03330056 10350 20317 56019
KIGM 222251Z AUTO 20013G18KT 10SM CLR 34/07 A3001 RMK AO2 SLP087 T03390067
KIGM 222151Z AUTO 23013G19KT 10SM BKN100 34/06 A3003 RMK AO2 PK WND 25027/2138 SLP095 T03390061
KIGM 222051Z AUTO 22015G24KT 10SM CLR 33/07 A3006 RMK AO2 SLP103 T03330067 58020
KIGM 221951Z AUTO 24017G23KT 10SM FEW100 34/06 A3008 RMK AO2 SLP109 T03440056
KIGM 221851Z AUTO 22014G22KT 10SM FEW100 34/06 A3010 RMK AO2 SLP117 T03390056
KIGM 221751Z AUTO 22012G20KT 10SM FEW100 32/07 A3012 RMK AO2 SLP124 T03220067 10328 20183 58001
KIGM 221651Z AUTO 00000KT 10SM CLR 30/07 A3013 RMK AO2 SLP126 T03000067
KIGM 221551Z AUTO 00000KT 10SM CLR 29/07 A3013 RMK AO2 SLP127 T02940072
KIGM 221451Z AUTO 00000KT 10SM CLR 24/06 A3012 RMK AO2 SLP130 T02440061 53008
KIGM 221351Z AUTO 20005KT 10SM CLR 18/05 A3011 RMK AO2 SLP130 T01830050
KIGM 221251Z AUTO 00000KT 10SM CLR 19/06 A3010 RMK AO2 SLP121 T01940056
KIGM 221151Z AUTO 18006KT 10SM CLR 20/06 A3010 RMK AO2 SLP119 T02000061 10250 20178 55003
KIGM 221051Z AUTO 12009KT 10SM CLR 19/06 A3010 RMK AO2 SLP121 T01940056
KIGM 220951Z AUTO 12004KT 10SM CLR 19/04 A3010 RMK AO2 SLP122 T01940044
KIGM 220851Z AUTO 09003KT 10SM CLR 21/04 A3011 RMK AO2 SLP122 T02060044 53000
KIGM 220751Z AUTO 00000KT 10SM CLR 23/04 A3011 RMK AO2 SLP120 T02330044
KIGM 220651Z AUTO 00000KT 10SM CLR 23/04 A3011 RMK AO2 SLP120 T02330044 403330156
KIGM 220551Z AUTO 19010KT 10SM CLR 25/05 A3011 RMK AO2 SLP120 T02500050 10328 20250 51010
KIGM 220451Z AUTO 19011KT 10SM CLR 27/06 A3010 RMK AO2 SLP119 T02670061
KIGM 220351Z AUTO 20007KT 10SM CLR 25/07 A3010 RMK AO2 SLP120 T02500067
KIGM 220251Z AUTO 21009KT 10SM CLR 28/08 A3007 RMK AO2 SLP112 T02780078 53007
KIGM 220151Z AUTO 24009KT 10SM FEW090 29/08 A3006 RMK AO2 SLP114 T02940083
KIGM 220051Z AUTO 24009KT 10SM FEW090 31/09 A3005 RMK AO2 SLP108 T03110089